sensor_id;sensor_type;location;lat;lon;timestamp;temperature;humidity
44647;DHT22;56315;-33.902;151.160;2022-08-19T00:00:40;17.00;99.90
44647;DHT22;56315;-33.902;151.160;2022-08-19T00:03:07;17.00;99.90
44647;DHT22;56315;-33.902;151.160;2022-08-19T00:05:35;16.90;99.90
44647;DHT22;56315;-33.902;151.160;2022-08-19T00:08:03;16.90;99.90
44647;DHT22;56315;-33.902;151.160;2022-08-19T00:10:30;16.80;99.90
44647;DHT22;56315;-33.902;151.160;2022-08-19T00:12:58;16.80;99.90
44647;DHT22;56315;-33.902;151.160;2022-08-19T00:15:25;16.80;99.90
44647;DHT22;56315;-33.902;151.160;2022-08-19T00:17:54;16.80;99.90
44647;DHT22;56315;-33.902;151.160;2022-08-19T00:20:22;16.90;99.90
44647;DHT22;56315;-33.902;151.160;2022-08-19T00:22:49;17.00;99.90
44647;DHT22;56315;-33.902;151.160;2022-08-19T00:25:17;17.20;99.90
44647;DHT22;56315;-33.902;151.160;2022-08-19T00:27:45;17.30;99.90
44647;DHT22;56315;-33.902;151.160;2022-08-19T00:30:14;17.30;99.90
44647;DHT22;56315;-33.902;151.160;2022-08-19T00:32:41;17.40;99.90
44647;DHT22;56315;-33.902;151.160;2022-08-19T00:35:09;17.50;99.90
44647;DHT22;56315;-33.902;151.160;2022-08-19T00:37:38;17.70;99.90
44647;DHT22;56315;-33.902;151.160;2022-08-19T00:40:11;18.00;99.90
44647;DHT22;56315;-33.902;151.160;2022-08-19T00:42:39;18.40;99.90
44647;DHT22;56315;-33.902;151.160;2022-08-19T00:45:15;18.80;99.90
44647;DHT22;56315;-33.902;151.160;2022-08-19T00:47:44;19.10;99.90
44647;DHT22;56315;-33.902;151.160;2022-08-19T00:50:15;19.30;99.90
44647;DHT22;56315;-33.902;151.160;2022-08-19T00:52:46;19.20;99.90
44647;DHT22;56315;-33.902;151.160;2022-08-19T00:55:21;19.30;99.90
44647;DHT22;56315;-33.902;151.160;2022-08-19T00:58:00;19.30;99.90
44647;DHT22;56315;-33.902;151.160;2022-08-19T01:00:29;19.20;99.90
44647;DHT22;56315;-33.902;151.160;2022-08-19T01:02:57;19.20;99.90
44647;DHT22;56315;-33.902;151.160;2022-08-19T01:05:26;19.20;99.90
44647;DHT22;56315;-33.902;151.160;2022-08-19T01:07:57;19.20;99.90
44647;DHT22;56315;-33.902;151.160;2022-08-19T01:10:28;19.20;99.90
44647;DHT22;56315;-33.902;151.160;2022-08-19T01:12:57;19.30;99.90
44647;DHT22;56315;-33.902;151.160;2022-08-19T01:15:29;19.60;99.90
44647;DHT22;56315;-33.902;151.160;2022-08-19T01:18:01;19.80;99.90
44647;DHT22;56315;-33.902;151.160;2022-08-19T01:20:29;20.10;99.90
44647;DHT22;56315;-33.902;151.160;2022-08-19T01:22:58;20.60;99.90
44647;DHT22;56315;-33.902;151.160;2022-08-19T01:25:52;20.90;99.90
44647;DHT22;56315;-33.902;151.160;2022-08-19T01:28:27;21.10;99.90
44647;DHT22;56315;-33.902;151.160;2022-08-19T01:30:55;22.00;99.90
44647;DHT22;56315;-33.902;151.160;2022-08-19T01:33:22;23.30;96.50
44647;DHT22;56315;-33.902;151.160;2022-08-19T01:35:50;24.80;93.30
44647;DHT22;56315;-33.902;151.160;2022-08-19T01:38:24;26.20;92.30
44647;DHT22;56315;-33.902;151.160;2022-08-19T01:40:52;27.60;90.60
44647;DHT22;56315;-33.902;151.160;2022-08-19T01:43:19;27.80;82.30
44647;DHT22;56315;-33.902;151.160;2022-08-19T01:45:47;27.60;83.10
44647;DHT22;56315;-33.902;151.160;2022-08-19T01:48:14;27.80;82.20
44647;DHT22;56315;-33.902;151.160;2022-08-19T01:50:41;27.20;80.20
44647;DHT22;56315;-33.902;151.160;2022-08-19T01:53:11;26.80;82.70
44647;DHT22;56315;-33.902;151.160;2022-08-19T01:55:42;26.40;81.40
44647;DHT22;56315;-33.902;151.160;2022-08-19T01:58:15;26.00;81.10
44647;DHT22;56315;-33.902;151.160;2022-08-19T02:00:44;25.70;82.00
44647;DHT22;56315;-33.902;151.160;2022-08-19T02:03:12;25.40;81.30
44647;DHT22;56315;-33.902;151.160;2022-08-19T02:05:41;25.40;82.00
44647;DHT22;56315;-33.902;151.160;2022-08-19T02:08:09;25.00;80.90
44647;DHT22;56315;-33.902;151.160;2022-08-19T02:10:42;24.60;83.40
44647;DHT22;56315;-33.902;151.160;2022-08-19T02:13:11;24.00;83.40
44647;DHT22;56315;-33.902;151.160;2022-08-19T02:15:40;23.50;84.40
44647;DHT22;56315;-33.902;151.160;2022-08-19T02:18:07;22.90;86.20
44647;DHT22;56315;-33.902;151.160;2022-08-19T02:20:36;22.50;88.50
44647;DHT22;56315;-33.902;151.160;2022-08-19T02:23:04;22.20;88.70
44647;DHT22;56315;-33.902;151.160;2022-08-19T02:25:32;22.00;90.20
44647;DHT22;56315;-33.902;151.160;2022-08-19T02:27:59;21.80;90.10
44647;DHT22;56315;-33.902;151.160;2022-08-19T02:30:27;21.80;91.10
44647;DHT22;56315;-33.902;151.160;2022-08-19T02:32:55;21.80;90.50
44647;DHT22;56315;-33.902;151.160;2022-08-19T02:35:22;21.90;90.50
44647;DHT22;56315;-33.902;151.160;2022-08-19T02:37:50;22.10;90.20
44647;DHT22;56315;-33.902;151.160;2022-08-19T02:40:36;22.40;90.20
44647;DHT22;56315;-33.902;151.160;2022-08-19T02:43:05;23.10;88.90
44647;DHT22;56315;-33.902;151.160;2022-08-19T02:45:38;23.30;87.10
44647;DHT22;56315;-33.902;151.160;2022-08-19T02:48:08;23.70;85.50
44647;DHT22;56315;-33.902;151.160;2022-08-19T02:50:39;24.20;82.10
44647;DHT22;56315;-33.902;151.160;2022-08-19T02:53:07;24.80;84.70
44647;DHT22;56315;-33.902;151.160;2022-08-19T02:55:35;25.50;81.70
44647;DHT22;56315;-33.902;151.160;2022-08-19T02:58:02;25.90;78.10
44647;DHT22;56315;-33.902;151.160;2022-08-19T03:00:29;26.10;76.70
44647;DHT22;56315;-33.902;151.160;2022-08-19T03:02:57;25.50;76.40
44647;DHT22;56315;-33.902;151.160;2022-08-19T03:05:25;25.20;76.20
44647;DHT22;56315;-33.902;151.160;2022-08-19T03:07:53;24.90;77.80
44647;DHT22;56315;-33.902;151.160;2022-08-19T03:10:20;25.20;77.70
44647;DHT22;56315;-33.902;151.160;2022-08-19T03:12:48;25.60;77.90
44647;DHT22;56315;-33.902;151.160;2022-08-19T03:15:15;25.50;76.10
44647;DHT22;56315;-33.902;151.160;2022-08-19T03:17:43;25.30;76.80
44647;DHT22;56315;-33.902;151.160;2022-08-19T03:20:11;25.30;76.60
44647;DHT22;56315;-33.902;151.160;2022-08-19T03:22:38;25.00;77.20
44647;DHT22;56315;-33.902;151.160;2022-08-19T03:25:05;24.50;77.00
44647;DHT22;56315;-33.902;151.160;2022-08-19T03:27:33;24.10;77.70
44647;DHT22;56315;-33.902;151.160;2022-08-19T03:30:01;23.90;78.10
44647;DHT22;56315;-33.902;151.160;2022-08-19T03:32:29;23.60;78.20
44647;DHT22;56315;-33.902;151.160;2022-08-19T03:34:56;23.50;79.20
44647;DHT22;56315;-33.902;151.160;2022-08-19T03:37:23;23.70;80.80
44647;DHT22;56315;-33.902;151.160;2022-08-19T03:39:52;23.80;79.20
44647;DHT22;56315;-33.902;151.160;2022-08-19T03:42:19;23.90;80.80
44647;DHT22;56315;-33.902;151.160;2022-08-19T03:44:47;23.90;79.30
44647;DHT22;56315;-33.902;151.160;2022-08-19T03:47:14;23.90;79.50
44647;DHT22;56315;-33.902;151.160;2022-08-19T03:49:42;23.80;78.90
44647;DHT22;56315;-33.902;151.160;2022-08-19T03:52:10;23.60;79.80
44647;DHT22;56315;-33.902;151.160;2022-08-19T03:54:38;23.40;79.70
44647;DHT22;56315;-33.902;151.160;2022-08-19T03:57:06;23.20;80.80
44647;DHT22;56315;-33.902;151.160;2022-08-19T03:59:36;22.80;81.80
44647;DHT22;56315;-33.902;151.160;2022-08-19T04:02:08;22.40;83.40
44647;DHT22;56315;-33.902;151.160;2022-08-19T04:04:39;22.30;84.20
44647;DHT22;56315;-33.902;151.160;2022-08-19T04:07:07;22.10;84.60
44647;DHT22;56315;-33.902;151.160;2022-08-19T04:09:36;22.10;86.70
44647;DHT22;56315;-33.902;151.160;2022-08-19T04:12:04;22.00;87.60
44647;DHT22;56315;-33.902;151.160;2022-08-19T04:14:32;21.80;86.40
44647;DHT22;56315;-33.902;151.160;2022-08-19T04:17:01;21.60;88.10
44647;DHT22;56315;-33.902;151.160;2022-08-19T04:19:32;21.30;91.20
44647;DHT22;56315;-33.902;151.160;2022-08-19T04:22:00;21.00;92.40
44647;DHT22;56315;-33.902;151.160;2022-08-19T04:24:27;20.80;93.30
44647;DHT22;56315;-33.902;151.160;2022-08-19T04:26:55;20.70;93.20
44647;DHT22;56315;-33.902;151.160;2022-08-19T04:29:25;20.80;93.60
44647;DHT22;56315;-33.902;151.160;2022-08-19T04:31:54;21.00;93.30
44647;DHT22;56315;-33.902;151.160;2022-08-19T04:34:25;21.10;92.60
44647;DHT22;56315;-33.902;151.160;2022-08-19T04:36:55;21.20;92.20
44647;DHT22;56315;-33.902;151.160;2022-08-19T04:39:29;21.30;91.70
44647;DHT22;56315;-33.902;151.160;2022-08-19T04:42:16;21.30;91.20
44647;DHT22;56315;-33.902;151.160;2022-08-19T04:45:02;21.30;91.40
44647;DHT22;56315;-33.902;151.160;2022-08-19T04:47:30;21.30;91.10
44647;DHT22;56315;-33.902;151.160;2022-08-19T04:49:59;21.20;91.40
44647;DHT22;56315;-33.902;151.160;2022-08-19T04:52:26;21.20;90.90
44647;DHT22;56315;-33.902;151.160;2022-08-19T04:54:54;21.20;91.20
44647;DHT22;56315;-33.902;151.160;2022-08-19T04:57:24;21.10;91.00
44647;DHT22;56315;-33.902;151.160;2022-08-19T04:59:56;21.10;91.00
44647;DHT22;56315;-33.902;151.160;2022-08-19T05:02:24;21.00;91.50
44647;DHT22;56315;-33.902;151.160;2022-08-19T05:04:57;20.90;91.10
44647;DHT22;56315;-33.902;151.160;2022-08-19T05:07:27;20.80;91.30
44647;DHT22;56315;-33.902;151.160;2022-08-19T05:09:55;20.60;92.00
44647;DHT22;56315;-33.902;151.160;2022-08-19T05:12:23;20.30;95.50
44647;DHT22;56315;-33.902;151.160;2022-08-19T05:14:51;19.80;98.50
44647;DHT22;56315;-33.902;151.160;2022-08-19T05:17:18;19.50;99.80
44647;DHT22;56315;-33.902;151.160;2022-08-19T05:19:45;19.30;99.90
44647;DHT22;56315;-33.902;151.160;2022-08-19T05:22:30;19.10;99.90
44647;DHT22;56315;-33.902;151.160;2022-08-19T05:25:07;19.00;99.90
44647;DHT22;56315;-33.902;151.160;2022-08-19T05:27:34;18.90;99.90
44647;DHT22;56315;-33.902;151.160;2022-08-19T05:30:02;18.90;99.90
44647;DHT22;56315;-33.902;151.160;2022-08-19T05:32:29;18.90;99.90
44647;DHT22;56315;-33.902;151.160;2022-08-19T05:34:57;19.00;99.90
44647;DHT22;56315;-33.902;151.160;2022-08-19T05:37:24;19.00;99.90
44647;DHT22;56315;-33.902;151.160;2022-08-19T05:39:54;19.10;99.90
44647;DHT22;56315;-33.902;151.160;2022-08-19T05:42:21;19.10;99.90
44647;DHT22;56315;-33.902;151.160;2022-08-19T05:44:49;19.10;99.90
44647;DHT22;56315;-33.902;151.160;2022-08-19T05:47:17;19.10;99.90
44647;DHT22;56315;-33.902;151.160;2022-08-19T05:49:46;19.10;99.90
44647;DHT22;56315;-33.902;151.160;2022-08-19T05:52:15;19.10;98.70
44647;DHT22;56315;-33.902;151.160;2022-08-19T05:54:42;19.10;95.60
44647;DHT22;56315;-33.902;151.160;2022-08-19T05:57:11;19.00;94.20
44647;DHT22;56315;-33.902;151.160;2022-08-19T05:59:38;18.90;93.70
44647;DHT22;56315;-33.902;151.160;2022-08-19T06:02:06;18.80;93.50
44647;DHT22;56315;-33.902;151.160;2022-08-19T06:04:34;18.70;93.20
44647;DHT22;56315;-33.902;151.160;2022-08-19T06:07:02;18.50;93.60
44647;DHT22;56315;-33.902;151.160;2022-08-19T06:09:30;18.40;93.10
44647;DHT22;56315;-33.902;151.160;2022-08-19T06:11:58;18.40;93.20
44647;DHT22;56315;-33.902;151.160;2022-08-19T06:14:31;18.40;93.00
44647;DHT22;56315;-33.902;151.160;2022-08-19T06:16:59;18.40;93.70
44647;DHT22;56315;-33.902;151.160;2022-08-19T06:19:29;18.50;93.90
44647;DHT22;56315;-33.902;151.160;2022-08-19T06:21:58;18.50;93.90
44647;DHT22;56315;-33.902;151.160;2022-08-19T06:24:28;18.40;93.50
44647;DHT22;56315;-33.902;151.160;2022-08-19T06:26:57;18.40;93.00
44647;DHT22;56315;-33.902;151.160;2022-08-19T06:29:26;18.30;93.40
44647;DHT22;56315;-33.902;151.160;2022-08-19T06:31:56;18.20;93.10
44647;DHT22;56315;-33.902;151.160;2022-08-19T06:34:25;18.30;94.10
44647;DHT22;56315;-33.902;151.160;2022-08-19T06:36:54;18.30;99.90
44647;DHT22;56315;-33.902;151.160;2022-08-19T06:39:24;18.00;99.90
44647;DHT22;56315;-33.902;151.160;2022-08-19T06:41:54;17.70;99.90
44647;DHT22;56315;-33.902;151.160;2022-08-19T06:44:24;17.40;99.90
44647;DHT22;56315;-33.902;151.160;2022-08-19T06:46:56;17.20;99.90
44647;DHT22;56315;-33.902;151.160;2022-08-19T06:49:24;17.00;99.90
44647;DHT22;56315;-33.902;151.160;2022-08-19T06:51:55;16.90;99.90
44647;DHT22;56315;-33.902;151.160;2022-08-19T06:54:23;16.80;99.90
44647;DHT22;56315;-33.902;151.160;2022-08-19T06:56:52;16.60;99.90
44647;DHT22;56315;-33.902;151.160;2022-08-19T06:59:21;16.40;99.90
44647;DHT22;56315;-33.902;151.160;2022-08-19T07:01:56;16.30;99.90
44647;DHT22;56315;-33.902;151.160;2022-08-19T07:04:30;16.10;99.90
44647;DHT22;56315;-33.902;151.160;2022-08-19T07:07:11;15.90;99.90
44647;DHT22;56315;-33.902;151.160;2022-08-19T07:09:43;15.70;99.90
44647;DHT22;56315;-33.902;151.160;2022-08-19T07:12:12;15.60;99.90
44647;DHT22;56315;-33.902;151.160;2022-08-19T07:14:42;15.40;99.90
44647;DHT22;56315;-33.902;151.160;2022-08-19T07:17:11;15.30;99.90
44647;DHT22;56315;-33.902;151.160;2022-08-19T07:19:40;15.20;99.90
44647;DHT22;56315;-33.902;151.160;2022-08-19T07:22:09;15.10;99.90
44647;DHT22;56315;-33.902;151.160;2022-08-19T07:24:37;15.00;99.90
44647;DHT22;56315;-33.902;151.160;2022-08-19T07:27:06;15.00;99.90
44647;DHT22;56315;-33.902;151.160;2022-08-19T07:29:37;15.00;99.90
44647;DHT22;56315;-33.902;151.160;2022-08-19T07:32:04;14.90;99.90
44647;DHT22;56315;-33.902;151.160;2022-08-19T07:34:34;14.90;99.90
44647;DHT22;56315;-33.902;151.160;2022-08-19T07:37:05;14.90;99.90
44647;DHT22;56315;-33.902;151.160;2022-08-19T07:39:35;14.80;99.90
44647;DHT22;56315;-33.902;151.160;2022-08-19T07:42:06;14.80;99.90
44647;DHT22;56315;-33.902;151.160;2022-08-19T07:44:34;14.70;99.90
44647;DHT22;56315;-33.902;151.160;2022-08-19T07:47:02;14.70;99.90
44647;DHT22;56315;-33.902;151.160;2022-08-19T07:49:29;14.70;99.90
44647;DHT22;56315;-33.902;151.160;2022-08-19T07:51:59;14.60;99.90
44647;DHT22;56315;-33.902;151.160;2022-08-19T07:54:30;14.60;99.90
44647;DHT22;56315;-33.902;151.160;2022-08-19T07:57:01;14.60;99.90
44647;DHT22;56315;-33.902;151.160;2022-08-19T07:59:28;14.50;99.90
44647;DHT22;56315;-33.902;151.160;2022-08-19T08:01:56;14.60;99.90
44647;DHT22;56315;-33.902;151.160;2022-08-19T08:04:27;14.50;99.90
44647;DHT22;56315;-33.902;151.160;2022-08-19T08:07:13;14.50;99.90
44647;DHT22;56315;-33.902;151.160;2022-08-19T08:09:59;14.40;99.90
44647;DHT22;56315;-33.902;151.160;2022-08-19T08:12:33;14.30;99.90
44647;DHT22;56315;-33.902;151.160;2022-08-19T08:15:04;14.20;99.90
44647;DHT22;56315;-33.902;151.160;2022-08-19T08:17:32;14.20;99.90
44647;DHT22;56315;-33.902;151.160;2022-08-19T08:20:00;14.00;99.90
44647;DHT22;56315;-33.902;151.160;2022-08-19T08:22:27;14.00;99.90
44647;DHT22;56315;-33.902;151.160;2022-08-19T08:25:18;13.90;99.90
44647;DHT22;56315;-33.902;151.160;2022-08-19T08:27:47;13.80;99.90
44647;DHT22;56315;-33.902;151.160;2022-08-19T08:30:21;13.80;99.90
44647;DHT22;56315;-33.902;151.160;2022-08-19T08:32:50;13.70;99.90
44647;DHT22;56315;-33.902;151.160;2022-08-19T08:35:21;13.60;99.90
44647;DHT22;56315;-33.902;151.160;2022-08-19T08:37:50;13.60;99.90
44647;DHT22;56315;-33.902;151.160;2022-08-19T08:40:45;13.50;99.90
44647;DHT22;56315;-33.902;151.160;2022-08-19T08:43:37;13.40;99.90
44647;DHT22;56315;-33.902;151.160;2022-08-19T08:46:15;13.30;99.90
44647;DHT22;56315;-33.902;151.160;2022-08-19T08:51:24;13.20;99.90
44647;DHT22;56315;-33.902;151.160;2022-08-19T08:53:53;13.20;99.90
44647;DHT22;56315;-33.902;151.160;2022-08-19T08:56:21;13.20;99.90
44647;DHT22;56315;-33.902;151.160;2022-08-19T09:01:18;13.20;99.90
44647;DHT22;56315;-33.902;151.160;2022-08-19T09:03:47;13.10;99.90
44647;DHT22;56315;-33.902;151.160;2022-08-19T09:09:29;13.00;99.90
44647;DHT22;56315;-33.902;151.160;2022-08-19T09:14:57;12.90;99.90
44647;DHT22;56315;-33.902;151.160;2022-08-19T09:17:28;12.90;99.90
44647;DHT22;56315;-33.902;151.160;2022-08-19T09:22:41;12.90;99.90
44647;DHT22;56315;-33.902;151.160;2022-08-19T09:25:18;12.80;99.90
44647;DHT22;56315;-33.902;151.160;2022-08-19T09:27:49;12.70;99.90
44647;DHT22;56315;-33.902;151.160;2022-08-19T09:30:24;12.70;99.90
44647;DHT22;56315;-33.902;151.160;2022-08-19T09:32:51;12.70;99.90
44647;DHT22;56315;-33.902;151.160;2022-08-19T09:35:24;12.60;99.90
44647;DHT22;56315;-33.902;151.160;2022-08-19T09:37:53;12.60;99.90
44647;DHT22;56315;-33.902;151.160;2022-08-19T09:40:21;12.50;99.90
44647;DHT22;56315;-33.902;151.160;2022-08-19T09:42:48;12.40;99.90
44647;DHT22;56315;-33.902;151.160;2022-08-19T09:45:17;12.30;99.90
44647;DHT22;56315;-33.902;151.160;2022-08-19T09:47:47;12.30;99.90
44647;DHT22;56315;-33.902;151.160;2022-08-19T09:50:14;12.20;99.90
44647;DHT22;56315;-33.902;151.160;2022-08-19T09:52:41;12.00;99.90
44647;DHT22;56315;-33.902;151.160;2022-08-19T09:55:10;11.90;99.90
44647;DHT22;56315;-33.902;151.160;2022-08-19T09:57:38;11.80;99.90
44647;DHT22;56315;-33.902;151.160;2022-08-19T10:00:07;11.70;99.90
44647;DHT22;56315;-33.902;151.160;2022-08-19T10:02:35;11.60;99.90
44647;DHT22;56315;-33.902;151.160;2022-08-19T10:05:03;11.60;99.90
44647;DHT22;56315;-33.902;151.160;2022-08-19T10:07:49;11.50;99.90
44647;DHT22;56315;-33.902;151.160;2022-08-19T10:10:17;11.60;99.90
44647;DHT22;56315;-33.902;151.160;2022-08-19T10:12:44;11.50;99.90
44647;DHT22;56315;-33.902;151.160;2022-08-19T10:15:13;11.50;99.90
44647;DHT22;56315;-33.902;151.160;2022-08-19T10:17:41;11.40;99.90
44647;DHT22;56315;-33.902;151.160;2022-08-19T10:20:09;11.30;99.90
44647;DHT22;56315;-33.902;151.160;2022-08-19T10:22:36;11.20;99.90
44647;DHT22;56315;-33.902;151.160;2022-08-19T10:25:05;11.20;99.90
44647;DHT22;56315;-33.902;151.160;2022-08-19T10:27:32;11.10;99.90
44647;DHT22;56315;-33.902;151.160;2022-08-19T10:30:00;11.00;99.90
44647;DHT22;56315;-33.902;151.160;2022-08-19T10:32:27;11.00;99.90
44647;DHT22;56315;-33.902;151.160;2022-08-19T10:34:56;11.00;99.90
44647;DHT22;56315;-33.902;151.160;2022-08-19T10:37:23;11.00;99.90
44647;DHT22;56315;-33.902;151.160;2022-08-19T10:39:51;11.00;99.90
44647;DHT22;56315;-33.902;151.160;2022-08-19T10:42:18;10.90;99.90
44647;DHT22;56315;-33.902;151.160;2022-08-19T10:44:47;10.90;99.90
44647;DHT22;56315;-33.902;151.160;2022-08-19T10:47:14;10.90;99.90
44647;DHT22;56315;-33.902;151.160;2022-08-19T10:49:42;10.80;99.90
44647;DHT22;56315;-33.902;151.160;2022-08-19T10:52:27;10.80;99.90
44647;DHT22;56315;-33.902;151.160;2022-08-19T10:55:02;10.70;99.90
44647;DHT22;56315;-33.902;151.160;2022-08-19T10:57:48;10.60;99.90
44647;DHT22;56315;-33.902;151.160;2022-08-19T11:00:16;10.60;99.90
44647;DHT22;56315;-33.902;151.160;2022-08-19T11:06:09;10.60;99.90
44647;DHT22;56315;-33.902;151.160;2022-08-19T11:08:37;10.50;99.90
44647;DHT22;56315;-33.902;151.160;2022-08-19T11:11:06;10.60;99.90
44647;DHT22;56315;-33.902;151.160;2022-08-19T11:13:39;10.60;99.90
44647;DHT22;56315;-33.902;151.160;2022-08-19T11:16:14;10.60;99.90
44647;DHT22;56315;-33.902;151.160;2022-08-19T11:18:47;10.50;99.90
44647;DHT22;56315;-33.902;151.160;2022-08-19T11:21:29;10.50;99.90
44647;DHT22;56315;-33.902;151.160;2022-08-19T11:24:03;10.40;99.90
44647;DHT22;56315;-33.902;151.160;2022-08-19T11:26:33;10.50;99.90
44647;DHT22;56315;-33.902;151.160;2022-08-19T11:29:01;10.50;99.90
44647;DHT22;56315;-33.902;151.160;2022-08-19T11:31:31;10.40;99.90
44647;DHT22;56315;-33.902;151.160;2022-08-19T11:34:00;10.30;99.90
44647;DHT22;56315;-33.902;151.160;2022-08-19T11:36:29;10.20;99.90
44647;DHT22;56315;-33.902;151.160;2022-08-19T11:38:59;10.20;99.90
44647;DHT22;56315;-33.902;151.160;2022-08-19T11:41:27;10.20;99.90
44647;DHT22;56315;-33.902;151.160;2022-08-19T11:43:54;10.10;99.90
44647;DHT22;56315;-33.902;151.160;2022-08-19T11:46:24;10.10;99.90
44647;DHT22;56315;-33.902;151.160;2022-08-19T11:48:52;10.00;99.90
44647;DHT22;56315;-33.902;151.160;2022-08-19T11:51:23;10.00;99.90
44647;DHT22;56315;-33.902;151.160;2022-08-19T11:53:55;9.90;99.90
44647;DHT22;56315;-33.902;151.160;2022-08-19T11:56:24;10.00;99.90
44647;DHT22;56315;-33.902;151.160;2022-08-19T11:58:53;9.90;99.90
44647;DHT22;56315;-33.902;151.160;2022-08-19T12:01:24;9.90;99.90
44647;DHT22;56315;-33.902;151.160;2022-08-19T12:03:52;9.80;99.90
44647;DHT22;56315;-33.902;151.160;2022-08-19T12:06:25;9.80;99.90
44647;DHT22;56315;-33.902;151.160;2022-08-19T12:08:56;9.80;99.90
44647;DHT22;56315;-33.902;151.160;2022-08-19T12:11:24;9.70;99.90
44647;DHT22;56315;-33.902;151.160;2022-08-19T12:13:52;9.60;99.90
44647;DHT22;56315;-33.902;151.160;2022-08-19T12:16:26;9.60;99.90
44647;DHT22;56315;-33.902;151.160;2022-08-19T12:18:55;9.50;99.90
44647;DHT22;56315;-33.902;151.160;2022-08-19T12:21:26;9.50;99.90
44647;DHT22;56315;-33.902;151.160;2022-08-19T12:23:57;9.40;99.90
44647;DHT22;56315;-33.902;151.160;2022-08-19T12:26:26;9.30;99.90
44647;DHT22;56315;-33.902;151.160;2022-08-19T12:28:54;9.30;99.90
44647;DHT22;56315;-33.902;151.160;2022-08-19T12:31:22;9.30;99.90
44647;DHT22;56315;-33.902;151.160;2022-08-19T12:33:49;9.20;99.90
44647;DHT22;56315;-33.902;151.160;2022-08-19T12:36:18;9.20;99.90
44647;DHT22;56315;-33.902;151.160;2022-08-19T12:38:46;9.10;99.90
44647;DHT22;56315;-33.902;151.160;2022-08-19T12:41:15;9.10;99.90
44647;DHT22;56315;-33.902;151.160;2022-08-19T12:43:45;9.10;99.90
44647;DHT22;56315;-33.902;151.160;2022-08-19T12:46:14;9.00;99.90
44647;DHT22;56315;-33.902;151.160;2022-08-19T12:48:42;9.00;99.90
44647;DHT22;56315;-33.902;151.160;2022-08-19T12:51:16;8.90;99.90
44647;DHT22;56315;-33.902;151.160;2022-08-19T12:53:44;8.90;99.90
44647;DHT22;56315;-33.902;151.160;2022-08-19T12:56:12;8.80;99.90
44647;DHT22;56315;-33.902;151.160;2022-08-19T12:58:42;8.80;99.90
44647;DHT22;56315;-33.902;151.160;2022-08-19T13:01:12;8.80;99.90
44647;DHT22;56315;-33.902;151.160;2022-08-19T13:03:40;8.80;99.90
44647;DHT22;56315;-33.902;151.160;2022-08-19T13:06:08;8.80;99.90
44647;DHT22;56315;-33.902;151.160;2022-08-19T13:08:37;8.70;99.90
44647;DHT22;56315;-33.902;151.160;2022-08-19T13:11:14;8.70;99.90
44647;DHT22;56315;-33.902;151.160;2022-08-19T13:13:45;8.70;99.90
44647;DHT22;56315;-33.902;151.160;2022-08-19T13:16:14;8.70;99.90
44647;DHT22;56315;-33.902;151.160;2022-08-19T13:18:44;8.80;99.90
44647;DHT22;56315;-33.902;151.160;2022-08-19T13:21:13;8.80;99.90
44647;DHT22;56315;-33.902;151.160;2022-08-19T13:23:41;8.80;99.90
44647;DHT22;56315;-33.902;151.160;2022-08-19T13:26:10;8.80;99.90
44647;DHT22;56315;-33.902;151.160;2022-08-19T13:28:38;8.80;99.90
44647;DHT22;56315;-33.902;151.160;2022-08-19T13:31:27;8.80;99.90
44647;DHT22;56315;-33.902;151.160;2022-08-19T13:34:13;8.80;99.90
44647;DHT22;56315;-33.902;151.160;2022-08-19T13:36:42;8.80;99.90
44647;DHT22;56315;-33.902;151.160;2022-08-19T13:39:10;8.90;99.90
44647;DHT22;56315;-33.902;151.160;2022-08-19T13:41:44;8.90;99.90
44647;DHT22;56315;-33.902;151.160;2022-08-19T13:44:17;9.00;99.90
44647;DHT22;56315;-33.902;151.160;2022-08-19T13:46:49;9.10;99.90
44647;DHT22;56315;-33.902;151.160;2022-08-19T13:49:22;9.10;99.90
44647;DHT22;56315;-33.902;151.160;2022-08-19T13:51:49;9.20;99.90
44647;DHT22;56315;-33.902;151.160;2022-08-19T13:54:17;9.30;99.90
44647;DHT22;56315;-33.902;151.160;2022-08-19T13:56:45;9.40;99.90
44647;DHT22;56315;-33.902;151.160;2022-08-19T13:59:12;9.40;99.90
44647;DHT22;56315;-33.902;151.160;2022-08-19T14:01:41;9.40;99.90
44647;DHT22;56315;-33.902;151.160;2022-08-19T14:04:09;9.40;99.90
44647;DHT22;56315;-33.902;151.160;2022-08-19T14:06:36;9.40;99.90
44647;DHT22;56315;-33.902;151.160;2022-08-19T14:09:04;9.40;99.90
44647;DHT22;56315;-33.902;151.160;2022-08-19T14:11:32;9.40;99.90
44647;DHT22;56315;-33.902;151.160;2022-08-19T14:13:59;9.40;99.90
44647;DHT22;56315;-33.902;151.160;2022-08-19T14:16:26;9.40;99.90
44647;DHT22;56315;-33.902;151.160;2022-08-19T14:18:54;9.40;99.90
44647;DHT22;56315;-33.902;151.160;2022-08-19T14:21:24;9.40;99.90
44647;DHT22;56315;-33.902;151.160;2022-08-19T14:23:52;9.40;99.90
44647;DHT22;56315;-33.902;151.160;2022-08-19T14:26:22;9.40;99.90
44647;DHT22;56315;-33.902;151.160;2022-08-19T14:28:50;9.40;99.90
44647;DHT22;56315;-33.902;151.160;2022-08-19T14:31:19;9.40;99.90
44647;DHT22;56315;-33.902;151.160;2022-08-19T14:33:47;9.40;99.90
44647;DHT22;56315;-33.902;151.160;2022-08-19T14:36:14;9.40;99.90
44647;DHT22;56315;-33.902;151.160;2022-08-19T14:38:42;9.40;99.90
44647;DHT22;56315;-33.902;151.160;2022-08-19T14:43:39;9.50;99.90
44647;DHT22;56315;-33.902;151.160;2022-08-19T14:46:07;9.50;99.90
44647;DHT22;56315;-33.902;151.160;2022-08-19T14:48:34;9.50;99.90
44647;DHT22;56315;-33.902;151.160;2022-08-19T14:51:05;9.60;99.90
44647;DHT22;56315;-33.902;151.160;2022-08-19T14:53:33;9.60;99.90
44647;DHT22;56315;-33.902;151.160;2022-08-19T14:56:01;9.60;99.90
44647;DHT22;56315;-33.902;151.160;2022-08-19T14:58:28;9.60;99.90
44647;DHT22;56315;-33.902;151.160;2022-08-19T15:00:58;9.60;99.90
44647;DHT22;56315;-33.902;151.160;2022-08-19T15:03:30;9.70;99.90
44647;DHT22;56315;-33.902;151.160;2022-08-19T15:06:01;9.70;99.90
44647;DHT22;56315;-33.902;151.160;2022-08-19T15:08:30;9.70;99.90
44647;DHT22;56315;-33.902;151.160;2022-08-19T15:10:59;9.70;99.90
44647;DHT22;56315;-33.902;151.160;2022-08-19T15:13:27;9.70;99.90
44647;DHT22;56315;-33.902;151.160;2022-08-19T15:15:56;9.70;99.90
44647;DHT22;56315;-33.902;151.160;2022-08-19T15:18:24;9.70;99.90
44647;DHT22;56315;-33.902;151.160;2022-08-19T15:20:51;9.70;99.90
44647;DHT22;56315;-33.902;151.160;2022-08-19T15:23:20;9.70;99.90
44647;DHT22;56315;-33.902;151.160;2022-08-19T15:25:48;9.70;99.90